Time;durP1;ratioP1;P1;durP2;ratioP2;P2;SDS_P1;SDS_P2;PMS_P1;PMS_P2;Temp;Humidity;BMP_temperature;BMP_pressure;BME280_temperature;BME280_humidity;BME280_pressure;Samples;Min_cycle;Max_cycle;Signal;HPM_P1;HPM_P2
2024/04/14 00:13:22;;;;;;;10.40;8.20;;;12.20;99.90;;;;;;5875680;23;20594;-85
2024/04/14 01:09:48;;;;;;;11.50;8.67;;;13.10;99.90;;;;;;5770722;24;20207;-86
2024/04/14 01:29:55;;;;;;;11.37;8.33;;;13.20;99.90;;;;;;5733663;24;20723;-88
2024/04/14 01:59:49;;;;;;;10.00;8.50;;;12.90;99.90;;;;;;5910273;23;21201;-90
2024/04/14 02:25:40;;;;;;;9.03;8.13;;;13.20;99.90;;;;;;5971829;23;20176;-88
2024/04/14 02:51:08;;;;;;;9.57;8.50;;;13.10;99.90;;;;;;5954934;23;20214;-86
2024/04/14 03:11:29;;;;;;;9.90;7.60;;;13.20;99.90;;;;;;5929028;23;20195;-88
2024/04/14 03:47:11;;;;;;;9.87;8.10;;;13.30;99.90;;;;;;5843103;24;20178;-86
2024/04/14 03:51:22;;;;;;;9.83;7.47;;;13.20;99.90;;;;;;5791287;24;20195;-85
2024/04/14 04:52:52;;;;;;;8.17;7.37;;;13.90;99.90;;;;;;6103518;23;20170;-86
2024/04/14 05:13:08;;;;;;;8.93;7.77;;;14.30;99.90;;;;;;5821895;24;20198;-86
2024/04/14 06:18:54;;;;;;;9.50;8.50;;;16.10;98.30;;;;;;6054630;23;20162;-84
2024/04/14 06:49:11;;;;;;;8.03;7.23;;;17.70;90.80;;;;;;5921835;23;20444;-86
2024/04/14 07:54:45;;;;;;;6.03;5.43;;;19.40;82.30;;;;;;5623822;24;20296;-87
2024/04/14 08:20:06;;;;;;;7.93;6.30;;;19.60;82.40;;;;;;5577922;25;20598;-85
2024/04/14 08:40:56;;;;;;;7.38;5.70;;;19.80;82.40;;;;;;5742027;24;20219;-84
2024/04/14 09:06:21;;;;;;;6.80;5.40;;;20.80;81.50;;;;;;5871833;24;20289;-84
2024/04/14 09:36:51;;;;;;;7.85;5.63;;;21.20;80.90;;;;;;5902063;24;20220;-89
2024/04/14 10:01:52;;;;;;;7.75;6.68;;;21.10;80.90;;;;;;5788625;24;20440;-87
2024/04/14 10:57:37;;;;;;;6.93;5.28;;;21.30;79.70;;;;;;5973639;23;20409;-85
2024/04/14 11:23:22;;;;;;;7.13;4.10;;;21.50;71.70;;;;;;5984556;23;20297;-85
2024/04/14 11:53:32;;;;;;;5.45;2.65;;;21.10;68.70;;;;;;5708619;24;20384;-85
2024/04/14 11:57:04;;;;;;;3.55;2.10;;;21.20;68.30;;;;;;5676489;24;20258;-86
2024/04/14 13:04:48;;;;;;;5.70;3.40;;;20.00;71.60;;;;;;5923112;23;20173;-86
2024/04/14 13:25:05;;;;;;;6.80;2.92;;;20.30;70.10;;;;;;5963389;23;20250;-85
2024/04/14 13:55:26;;;;;;;8.82;2.15;;;21.10;63.80;;;;;;5860678;23;20182;-85
2024/04/14 14:25:14;;;;;;;7.15;2.53;;;21.60;61.70;;;;;;5739715;24;20449;-86
2024/04/14 14:46:06;;;;;;;3.30;1.73;;;19.10;63.80;;;;;;5780050;24;20372;-88
2024/04/14 15:06:31;;;;;;;5.23;1.90;;;18.20;64.70;;;;;;5685872;24;20250;-83
2024/04/14 15:26:35;;;;;;;3.43;1.70;;;18.40;64.50;;;;;;5684070;24;20185;-84
2024/04/14 15:57:04;;;;;;;6.80;1.97;;;17.20;63.50;;;;;;5725731;24;20178;-85
2024/04/14 16:22:22;;;;;;;5.33;1.87;;;17.00;62.00;;;;;;5777540;24;20253;-83
2024/04/14 16:52:55;;;;;;;6.23;1.67;;;16.50;62.00;;;;;;5943749;23;20699;-84
2024/04/14 17:18:01;;;;;;;6.13;1.50;;;16.20;51.30;;;;;;5718763;24;20612;-84
2024/04/14 17:38:34;;;;;;;5.10;1.63;;;15.60;41.30;;;;;;5684469;24;20670;-84
2024/04/14 18:08:26;;;;;;;4.17;1.43;;;14.70;35.70;;;;;;5743925;24;20514;-84
2024/04/14 18:29:17;;;;;;;4.33;1.57;;;14.20;36.10;;;;;;5840298;23;20569;-86
2024/04/14 18:59:13;;;;;;;8.17;1.80;;;13.40;36.70;;;;;;5563460;24;20181;-85
2024/04/14 19:20:06;;;;;;;6.90;2.00;;;12.70;38.40;;;;;;5587359;25;20281;-85
2024/04/14 20:00:31;;;;;;;8.00;1.97;;;12.10;39.90;;;;;;5732680;24;20962;-86
2024/04/14 20:30:51;;;;;;;4.20;2.00;;;12.10;40.60;;;;;;5921165;23;20209;-85
2024/04/14 20:56:21;;;;;;;3.97;2.20;;;10.60;42.90;;;;;;5752345;24;20349;-87
2024/04/14 21:36:30;;;;;;;5.87;2.33;;;9.30;45.10;;;;;;5903355;23;20841;-85
2024/04/14 21:57:12;;;;;;;6.73;2.70;;;8.70;47.30;;;;;;5755128;23;20266;-86
2024/04/14 22:21:59;;;;;;;4.90;2.77;;;8.40;48.30;;;;;;5689292;24;20467;-88
2024/04/14 22:53:04;;;;;;;6.93;3.07;;;9.10;49.10;;;;;;5915436;23;20628;-87
2024/04/14 23:13:22;;;;;;;5.50;2.97;;;8.60;52.70;;;;;;5843959;23;20248;-87
2024/04/14 23:38:23;;;;;;;5.67;2.93;;;7.50;64.80;;;;;;5651298;24;20619;-85
